ADDS METAR Data INFO
IDs: Format: Raw Decoded Include TAF

Data at: 0741 UTC 21 Jul 2018

PAHN 210654Z AUTO 11004KT 10SM CLR 14/12 A3022 RMK AO2 SLP234 T01390122 TSNO
PAHN 210554Z AUTO 10004KT 10SM CLR 16/13 A3020 RMK AO2 SLP229 T01560128 10200 20150 53010 TSNO
PAHN 210454Z AUTO 10005KT 10SM CLR 17/13 A3019 RMK AO2 SLP225 T01720128 TSNO
PAHN 210354Z AUTO 10004KT 10SM CLR 19/13 A3018 RMK AO2 SLP222 T01890133 TSNO
PAHN 210254Z AUTO 13009KT 10SM CLR 20/13 A3017 RMK AO2 SLP218 T02000128 58007 TSNO
PAHN 210154Z AUTO 11007KT 10SM CLR 20/13 A3018 RMK AO2 SLP221 T02000128 TSNO
PAHN 210054Z AUTO 12009KT 10SM CLR 19/13 A3018 RMK SLP223 T01890128 TSNO VIA AUTODIAL
PAHN 202354Z AUTO 13009KT 10SM CLR 19/13 A3019 RMK AO2 SLP225 T01890133 10194 20161 58008 TSNO
PAHN 202254Z AUTO 13009KT 10SM CLR 19/14 A3020 RMK AO2 SLP229 T01890139 TSNO
PAHN 202154Z AUTO 13008KT 10SM CLR 18/14 A3021 RMK AO2 SLP231 T01830139 TSNO
PAHN 202054Z AUTO 13007KT 10SM CLR 18/13 A3021 RMK AO2 SLP233 T01830133 58008 TSNO
PAHN 201954Z AUTO 13006KT 10SM CLR 18/13 A3022 RMK AO2 SLP237 T01780128 TSNO
PAHN 201854Z AUTO 14006KT 10SM CLR 17/12 A3023 RMK AO2 SLP238 T01720122 TSNO
PAHN 201754Z AUTO 00000KT 10SM CLR 19/12 A3024 RMK AO2 SLP241 T01940122 10194 20094 58007 TSNO
PAHN 201654Z AUTO 31005KT 10SM CLR 16/12 A3025 RMK AO2 SLP246 T01610117 TSNO
PAHN 201554Z AUTO VRB03KT 10SM CLR 14/11 A3025 RMK SLP247 T01440111 TSNO VIA AUTODIAL
PAHN 201454Z AUTO 00000KT 10SM BKN110 12/11 A3026 RMK AO2 SLP248 T01220111 50001 TSNO
PAHN 201354Z AUTO 30004KT 10SM CLR 11/10 A3026 RMK AO2 SLP248 T01060100 TSNO
PAHN 201254Z AUTO 00000KT 10SM CLR 10/09 A3026 RMK AO2 SLP248 T01000094 TSNO
PAHN 201154Z AUTO 00000KT 10SM CLR 11/09 A3025 RMK AO2 SLP247 T01060094 10144 20094 53006 TSNO
PAHN 201054Z AUTO 00000KT 10SM FEW120 09/09 A3025 RMK AO2 SLP245 T00940089 TSNO
PAHN 200954Z AUTO 00000KT 10SM FEW110 11/10 A3024 RMK AO2 SLP243 T01110100 TSNO
PAHN 200854Z AUTO 00000KT 10SM BKN120 12/11 A3024 RMK AO2 SLP241 T01170106 401830111 51014 TSNO
PAHN 200754Z AUTO 07003KT 10SM CLR 13/11 A3023 RMK AO2 SLP239 T01280111 TSNO
PAHN 200654Z AUTO 11005KT 10SM CLR 13/11 A3021 RMK AO2 SLP231 T01280106 TSNO
PAHN 200554Z AUTO 09005KT 10SM CLR 14/11 A3020 RMK AO2 SLP227 T01440111 10178 20139 53007 TSNO
PAHN 200454Z AUTO 12005KT 10SM CLR 15/12 A3019 RMK AO2 SLP225 T01500117 TSNO
PAHN 200410Z AUTO 10005KT 10SM CLR 17/12 A3018 RMK AO2 T01670117 TSNO
PAHN 200401Z AUTO 09004KT 2SM HZ CLR 17/12 A3018 RMK AO2 T01670122 TSNO
PAHN 200354Z AUTO 12005KT 3SM HZ CLR 16/12 A3018 RMK AO2 SLP222 T01610122 TSNO
PAHN 200254Z AUTO 11006KT 10SM CLR 17/12 A3017 RMK AO2 SLP220 T01720117 56002 TSNO
PAHN 200154Z AUTO 10008KT 10SM CLR 18/11 A3018 RMK AO2 SLP221 T01780106 TSNO
PAHN 200054Z AUTO 09007KT 10SM CLR 17/12 A3018 RMK AO2 SLP221 T01720122 TSNO
PAHN 192354Z AUTO 12011KT 10SM CLR 18/12 A3018 RMK AO2 SLP222 T01780117 10183 20122 58009 TSNO
PAHN 192254Z AUTO 12010KT 10SM CLR 17/13 A3019 RMK AO2 SLP225 T01720128 TSNO
PAHN 192154Z AUTO 14010KT 10SM CLR 17/13 A3020 RMK AO2 SLP229 T01670128 TSNO
PAHN 192054Z AUTO 14008KT 10SM CLR 16/12 A3021 RMK AO2 SLP231 T01610122 58010 TSNO
PAHN 191954Z AUTO 14007KT 10SM OVC030 14/12 A3022 RMK AO2 SLP235 T01440117 TSNO